This is the latest recevied weather packets stored in our database for station/object NC4M. If no packets are shown the sender has not sent any weather packets the latest 10 day(s).
| Time | Temp. | Humidity | Pressure | Rain* | Wind** | Luminosity | Snow |
|---|---|---|---|---|---|---|---|
| 1777842038 | 27.22° C | 35% | 1011.8 hPa | 0 mm | - | 590 W/m² | - |
| 1777841432 | 27.22° C | 36% | 1011.9 hPa | 0 mm | - | 615 W/m² | - |
| 1777840224 | 26.11° C | 35% | 1012.4 hPa | 0 mm | - | 672 W/m² | - |
| 1777839918 | 26.11° C | 33% | 1012.5 hPa | 0 mm | - | 426 W/m² | - |
| 1777839314 | 26.11° C | 35% | 1012.6 hPa | 0 mm | - | 577 W/m² | - |
| 1777836581 | 24.44° C | 36% | 1013.5 hPa | 0 mm | - | 72 W/m² | - |
| 1777835367 | 25.56° C | 32% | 1014.1 hPa | 0 mm | - | 368 W/m² | - |
| 1777834157 | 25° C | 33% | 1014.5 hPa | 0 mm | - | 127 W/m² | - |
| 1777830220 | 23.89° C | 36% | 1015.7 hPa | 0 mm | - | 896 W/m² | - |
| 1777829313 | 23.33° C | 36% | 1016.1 hPa | 0 mm | - | 890 W/m² | - |
| 1777828404 | 23.33° C | 37% | 1016.3 hPa | 0 mm | - | 880 W/m² | - |
| 1777825980 | 21.11° C | 35% | 1017.6 hPa | 0 mm | - | 830 W/m² | - |
| 1777824464 | 20° C | 41% | 1018 hPa | 0 mm | - | 783 W/m² | - |
| 1777823856 | 19.44° C | 44% | 1018.1 hPa | 0 mm | - | 764 W/m² | - |
| 1777822646 | 18.33° C | 43% | 1018.5 hPa | 0 mm | - | 68 W/m² | - |
| 1777822344 | 17.78° C | 44% | 1018.3 hPa | 0 mm | - | 639 W/m² | - |
| 1777822041 | 17.78° C | 43% | 1018.4 hPa | 0 mm | - | 189 W/m² | - |
| 1777821739 | 17.22° C | 44% | 1018.3 hPa | 0 mm | - | 291 W/m² | - |
| 1777821436 | 17.22° C | 46% | 1018.3 hPa | 0 mm | - | 241 W/m² | - |
| 1777821133 | 17.22° C | 47% | 1018.4 hPa | 0 mm | - | 171 W/m² | - |
| 1777820830 | 17.22° C | 44% | 1018.3 hPa | 0 mm | - | 61 W/m² | - |
| 1777820223 | 16.11° C | 48% | 1018.4 hPa | 0 mm | - | 70 W/m² | - |
| 1777819920 | 16.11° C | 46% | 1018.5 hPa | 0 mm | - | 57 W/m² | - |
| 1777818709 | 15.56° C | 50% | 1018.7 hPa | 0 mm | - | 51 W/m² | - |
| 1777816587 | 13.89° C | 60% | 1018.9 hPa | 0 mm | - | 217 W/m² | - |
* Rain latest hour (hover to see other rain measurements)
** Current wind speed in m/s (hover to see current wind gust speed)